EL BRULL (Osona)





Hora UTC 21:00
Temperatura 19.3 ºC
Humitat 73.1 %
Pressió 1015.2 hPa
Pluja 0.0 mm
Velocitat vent 2.1 km/h
Direcció vent ESE
Radiació solar 0.0 W/m²

Dades diàries 2024-06-18



Hora UTC (hivern +1h; estiu +2h)
Temperatura (ºC) Humitat (%) Pressió (hPa) Velocitat vent (km/h) Precipitació (mm) Radiació solar (W/m²)
Hora UTC Aire Humitat Pressió Vel. Dir. Vel. Max Dir. Intent. màx 5 min. Rad. Sol.
00:10 17.3 70.9 1017.6 2.9 SSW 8.8 SSW 0.0 0.0
00:20 17.2 71.5 1017.6 3.8 SW 8.0 SW 0.0 0.0
00:30 17.3 70.2 1017.4 1.7 W 7.5 W 0.0 0.0
00:40 17.3 69.3 1017.4 2.2 SSW 6.5 W 0.0 0.0
00:50 17.1 69.2 1017.4 1.2 ENE 4.7 W 0.0 0.0
01:00 16.9 69.2 1017.3 2.5 ESE 9.5 ESE 0.0 0.0
01:10 16.6 70.9 1017.3 3.2 SE 6.9 SE 0.0 0.0
01:20 16.3 71.0 1017.2 1.9 SE 4.2 SE 0.0 0.0
01:30 16.6 69.2 1017.1 3.1 SE 6.4 ESE 0.0 0.0
01:40 16.6 68.8 1017.1 2.0 ESE 5.5 SE 0.0 0.0
01:50 16.2 71.6 1017.1 1.8 E 5.1 ESE 0.0 0.0
02:00 16.3 73.8 1017.0 2.4 E 8.0 NE 0.0 0.0
02:10 16.7 74.4 1016.8 1.0 E 8.0 NE 0.0 0.0
02:20 16.6 74.1 1016.6 2.0 N 6.7 NNW 0.0 0.0
02:30 15.8 74.7 1016.5 3.0 N 6.2 N 0.0 0.0
02:40 16.4 71.6 1016.5 2.7 N 6.4 NNW 0.0 0.0
02:50 16.3 71.7 1016.3 1.8 NE 4.9 NNE 0.0 0.0
03:00 17.0 69.2 1016.3 0.7 NNE 2.0 N 0.0 0.0
03:10 17.1 67.3 1016.3 1.3 NE 3.5 NNE 0.0 0.0
03:20 16.5 70.0 1016.3 3.5 N 7.8 NNW 0.0 0.0
03:30 15.5 75.6 1016.4 3.3 N 7.2 NNW 0.0 0.0
03:40 15.0 77.5 1016.3 1.7 NNE 4.5 N 0.0 0.0
03:50 15.2 75.3 1016.2 2.0 NE 6.1 N 0.0 0.1
04:00 15.5 72.7 1016.2 1.5 NE 4.4 N 0.0 0.3
04:10 16.2 67.6 1016.2 0.9 ENE 2.0 E 0.0 1.2
04:20 16.5 67.8 1016.0 0.9 NE 2.6 NE 0.0 3.8
04:30 17.0 65.4 1016.0 0.6 NE 2.4 ENE 0.0 7.5
04:40 16.9 65.9 1016.0 1.9 ENE 6.2 NE 0.0 11.9
04:50 17.4 62.8 1016.0 1.3 ENE 2.8 E 0.0 16.0
05:00 17.2 63.9 1016.0 0.5 SE 2.6 ESE 0.0 20.1
05:10 17.4 63.2 1016.0 0.6 SSE 1.9 ESE 0.0 24.3
05:20 17.4 63.3 1016.1 2.1 SE 4.7 SE 0.0 30.7
05:30 17.8 61.9 1016.1 0.8 ENE 4.0 E 0.0 47.5
05:40 18.4 60.4 1016.2 1.0 S 4.0 SE 0.0 43.2
05:50 18.8 58.8 1016.3 0.8 ESE 2.9 ESE 0.0 47.5
06:00 19.0 58.0 1016.4 1.2 SSW 4.0 SSE 0.0 60.6
06:10 19.1 59.8 1016.6 2.6 S 5.1 SSE 0.0 52.9
06:20 18.9 60.3 1016.7 3.1 S 7.6 S 0.0 100.3
06:30 19.1 59.5 1016.7 2.8 SE 6.0 SSE 0.0 302.7
06:40 20.1 55.6 1016.7 3.1 SSW 9.1 ESE 0.0 329.6
06:50 20.8 54.0 1016.8 5.0 SE 11.3 SSE 0.0 364.0
07:00 21.1 53.1 1016.7 7.4 SE 16.0 SSE 0.0 392.6
07:10 21.4 51.6 1016.7 4.8 ESE 13.9 SE 0.0 425.3
07:20 22.3 51.8 1016.7 2.7 ENE 14.2 SE 0.0 455.2
07:30 22.2 59.1 1016.7 1.8 NNW 6.0 N 0.0 486.3
07:40 22.1 60.4 1016.7 3.4 NNW 10.9 N 0.0 518.7
07:50 22.4 60.3 1016.5 2.1 NNW 7.8 NNW 0.0 551.8
08:00 22.6 59.1 1016.4 4.6 N 10.0 N 0.0 582.8
08:10 22.3 60.7 1016.4 4.4 NNW 10.9 NNW 0.0 613.9
08:20 22.4 60.8 1016.5 4.1 NW 10.2 N 0.0 639.6
08:30 22.1 61.6 1016.5 3.6 W 8.2 W 0.0 663.3
08:40 23.2 57.5 1016.4 4.4 SSW 13.4 SSW 0.0 689.5
08:50 23.5 53.0 1016.5 5.6 S 14.7 S 0.0 715.4
09:00 23.7 50.3 1016.4 8.7 SSW 16.1 SW 0.0 737.0
09:10 24.4 50.4 1016.4 8.3 S 18.7 SE 0.0 758.4
09:20 24.7 50.6 1016.5 9.9 SE 23.1 SSE 0.0 778.7
09:30 24.8 50.1 1016.5 9.8 SE 20.9 SE 0.0 796.4
09:40 25.4 49.2 1016.6 11.6 S 30.9 SSW 0.0 815.0
09:50 25.1 48.7 1016.6 13.1 S 24.2 S 0.0 834.0
10:00 25.1 49.5 1016.7 13.5 SE 29.1 SE 0.0 857.0
10:10 24.3 50.5 1016.7 16.4 SE 31.8 SE 0.0 876.0
10:20 24.4 50.3 1016.8 14.6 SE 27.5 SE 0.0 890.0
10:30 24.4 49.7 1016.8 14.1 SE 26.8 SE 0.0 904.0
10:40 24.7 48.8 1016.7 13.4 SE 24.8 SE 0.0 916.0
10:50 24.8 48.2 1016.7 13.0 SE 23.4 SE 0.0 926.0
11:00 24.9 48.4 1016.6 11.1 SE 21.0 SE 0.0 934.0
11:10 25.2 47.4 1016.6 11.4 SE 20.1 SE 0.0 947.0
11:20 25.6 46.3 1016.5 11.9 SE 24.6 SE 0.0 952.0
11:30 25.7 45.4 1016.5 11.7 SE 23.6 SE 0.0 943.0
11:40 25.7 45.4 1016.5 11.0 SE 23.2 SE 0.0 934.0
11:50 25.9 45.0 1016.4 11.4 SE 24.7 SE 0.0 956.0
12:00 26.2 45.2 1016.4 12.8 SE 23.8 SE 0.0 955.0
12:10 26.2 45.3 1016.3 12.9 SE 24.9 SE 0.0 951.0
12:20 26.0 45.2 1016.2 12.8 SE 28.2 SE 0.0 948.0
12:30 26.0 46.0 1016.1 13.5 SE 27.2 SE 0.0 945.0
12:40 25.8 46.4 1016.1 14.4 SE 24.8 SE 0.0 940.0
12:50 25.8 46.8 1016.2 13.4 SE 25.5 ESE 0.0 931.0
13:00 26.1 46.9 1016.2 12.2 SE 25.0 SE 0.0 917.0
13:10 26.4 44.6 1016.2 13.5 SE 24.2 SE 0.0 910.0
13:20 26.5 46.2 1016.2 11.0 SE 20.1 SSE 0.0 892.0
13:30 27.0 44.0 1016.2 11.2 SSE 22.7 SSE 0.0 883.0
13:40 26.4 45.1 1016.1 12.6 SE 23.3 SE 0.0 870.0
13:50 26.3 45.3 1016.1 15.7 SE 31.3 SE 0.0 848.0
14:00 26.1 45.5 1016.0 14.8 SE 27.0 SE 0.0 834.0
14:10 26.1 45.5 1015.9 13.4 SE 22.7 SE 0.0 814.0
14:20 26.2 45.9 1015.7 13.0 SE 24.8 SE 0.0 792.3
14:30 26.0 46.3 1015.6 15.0 SE 25.2 SE 0.0 772.6
14:40 26.1 45.8 1015.5 13.2 SE 22.9 SE 0.0 759.4
14:50 26.2 44.7 1015.4 12.0 SE 20.7 SE 0.0 739.4
15:00 26.2 45.8 1015.3 14.2 SE 24.5 ESE 0.0 712.8
15:10 26.0 46.7 1015.2 12.1 SE 25.2 SE 0.0 674.0
15:20 26.4 45.0 1015.1 12.0 SE 22.7 SE 0.0 659.2
15:30 26.1 45.2 1015.0 12.3 SE 25.3 ESE 0.0 626.0
15:40 26.2 46.0 1015.0 11.9 SE 20.7 SE 0.0 596.4
15:50 25.8 47.1 1014.9 13.2 SE 23.4 SE 0.0 570.0
16:00 25.8 47.1 1014.8 12.0 SE 21.8 SSE 0.0 538.9
16:10 25.5 46.7 1014.7 14.3 SE 24.0 SE 0.0 508.7
16:20 25.5 47.5 1014.6 11.9 SE 21.9 SE 0.0 476.3
16:30 25.3 48.1 1014.5 11.8 SE 18.5 ESE 0.0 446.3
16:40 25.3 47.0 1014.4 11.1 SE 19.2 SE 0.0 415.8
16:50 25.3 46.9 1014.4 8.3 SE 18.9 SE 0.0 384.5
17:00 25.2 48.1 1014.2 8.4 SE 19.5 SE 0.0 353.8
17:10 24.8 50.1 1014.3 9.8 SE 19.1 SE 0.0 320.6
17:20 24.4 52.2 1014.3 10.3 SE 20.8 SE 0.0 287.6
17:30 24.1 52.1 1014.3 9.8 SE 19.4 SE 0.0 254.9
17:40 23.9 51.9 1014.2 7.8 SE 14.7 ESE 0.0 131.0
17:50 23.6 52.1 1014.2 6.5 SE 15.1 SSE 0.0 57.1
18:00 23.6 52.0 1014.2 4.8 SE 11.1 SE 0.0 48.4
18:10 23.5 54.1 1014.2 3.0 SSE 11.6 SSW 0.0 42.5
18:20 23.4 54.7 1014.2 2.5 SSE 8.7 ESE 0.0 37.8
18:30 23.2 55.8 1014.1 3.5 SE 12.2 SSE 0.0 33.5
18:40 22.9 57.7 1014.1 2.0 SSE 6.5 ESE 0.0 29.0
18:50 22.6 60.5 1014.1 1.3 S 3.6 SSE 0.0 24.4
19:00 22.2 62.4 1014.1 1.1 SE 4.2 SE 0.0 20.0
19:10 21.9 64.3 1014.1 1.1 SSE 5.2 SSE 0.0 15.5
19:20 21.6 66.2 1014.1 0.4 ESE 2.1 SSW 0.0 9.9
19:30 21.2 67.9 1014.1 1.0 SE 3.6 SSE 0.0 3.9
19:40 20.9 69.5 1014.2 2.0 SSE 3.4 SSE 0.0 1.5
19:50 20.6 70.7 1014.3 1.1 SSE 3.3 SSE 0.0 0.5
20:00 20.6 70.5 1014.4 0.8 SSE 4.1 S 0.0 0.1
20:10 20.4 71.8 1014.6 1.5 SSW 4.0 SSW 0.0 0.0
20:20 20.4 69.1 1014.8 1.5 SE 4.4 S 0.0 0.0
20:30 20.6 67.0 1015.0 1.1 S 2.7 SSE 0.0 0.0
20:40 20.2 69.6 1015.1 1.7 NW 7.8 N 0.0 0.0
20:50 19.5 75.4 1015.1 1.5 N 6.6 NNW 0.0 0.0
21:00 19.3 73.1 1015.2 2.1 ESE 5.3 ENE 0.0 0.0
Màxima 27.0 77.5 1017.6 16.4 SE 31.8 SE 0.0 956.0
Mínima 15.0 44.0 1014.1
Total 0.0